Time;durP1;ratioP1;P1;durP2;ratioP2;P2;SDS_P1;SDS_P2;PMS_P1;PMS_P2;Temp;Humidity;BMP_temperature;BMP_pressure;BME280_temperature;BME280_humidity;BME280_pressure;Samples;Min_cycle;Max_cycle;Signal;HPM_P1;HPM_P2
2024/01/17 00:02:21;;;;;;;201.77;92.93;;;;;;;;;;10122984;29;20589;-81
2024/01/17 00:07:24;;;;;;;197.33;85.80;;;;;;;;;;10118520;29;20040;-80
2024/01/17 00:12:25;;;;;;;206.63;96.33;;;;;;;;;;10109037;29;20764;-80
2024/01/17 00:17:26;;;;;;;193.63;86.63;;;;;;;;;;10109968;29;20556;-80
2024/01/17 00:22:27;;;;;;;182.53;80.67;;;;;;;;;;10101909;29;20043;-82
2024/01/17 00:27:28;;;;;;;168.37;76.57;;;;;;;;;;10121558;29;20152;-80
2024/01/17 00:32:31;;;;;;;167.10;74.73;;;;;;;;;;10095518;29;20032;-80
2024/01/17 00:37:32;;;;;;;160.97;66.50;;;;;;;;;;10115844;29;21013;-82
2024/01/17 00:42:40;;;;;;;166.97;71.87;;;;;;;;;;10121352;29;20029;-80
2024/01/17 00:47:42;;;;;;;162.83;70.40;;;;;;;;;;10118623;29;20055;-80
2024/01/17 00:52:43;;;;;;;171.57;76.53;;;;;;;;;;10120122;29;20120;-79
2024/01/17 00:57:44;;;;;;;168.07;72.27;;;;;;;;;;10118129;29;20116;-80
2024/01/17 01:02:46;;;;;;;172.20;74.50;;;;;;;;;;10121177;29;20033;-80
2024/01/17 01:07:47;;;;;;;156.00;71.70;;;;;;;;;;10120760;29;20072;-80
2024/01/17 01:12:48;;;;;;;153.73;67.10;;;;;;;;;;10121575;29;20045;-80
2024/01/17 01:17:50;;;;;;;148.10;63.50;;;;;;;;;;10122021;29;20740;-79
2024/01/17 01:22:51;;;;;;;159.17;65.40;;;;;;;;;;10118931;29;20175;-79
2024/01/17 01:27:52;;;;;;;151.20;65.53;;;;;;;;;;10119620;29;20487;-81
2024/01/17 01:32:53;;;;;;;148.47;66.07;;;;;;;;;;10120316;29;20100;-79
2024/01/17 01:37:54;;;;;;;160.73;69.60;;;;;;;;;;10120727;29;20127;-82
2024/01/17 01:42:58;;;;;;;167.60;72.53;;;;;;;;;;10119642;29;20099;-79
2024/01/17 01:47:59;;;;;;;156.73;68.73;;;;;;;;;;10114308;29;20044;-80
2024/01/17 01:53:00;;;;;;;150.13;65.80;;;;;;;;;;10103817;29;20135;-79
2024/01/17 01:58:01;;;;;;;158.70;69.07;;;;;;;;;;10120563;29;20429;-79
2024/01/17 02:03:02;;;;;;;151.87;64.80;;;;;;;;;;10119525;29;20128;-79
2024/01/17 02:08:03;;;;;;;138.47;62.93;;;;;;;;;;10103523;29;20059;-79
2024/01/17 02:13:04;;;;;;;153.97;62.83;;;;;;;;;;10119458;29;20044;-81
2024/01/17 02:18:05;;;;;;;140.17;60.17;;;;;;;;;;10119054;29;20119;-81
2024/01/17 02:23:22;;;;;;;148.57;61.33;;;;;;;;;;10123733;29;20036;-79
2024/01/17 02:28:24;;;;;;;148.83;66.53;;;;;;;;;;10118472;29;20124;-80
2024/01/17 02:33:25;;;;;;;157.20;65.47;;;;;;;;;;10127101;29;20032;-79
2024/01/17 02:38:26;;;;;;;136.90;54.90;;;;;;;;;;10127680;29;20040;-79
2024/01/17 02:43:29;;;;;;;153.23;63.17;;;;;;;;;;10122282;29;20038;-81
2024/01/17 02:48:30;;;;;;;153.70;62.03;;;;;;;;;;10120977;29;20681;-79
2024/01/17 02:53:37;;;;;;;136.20;58.63;;;;;;;;;;10127832;29;20044;-79
2024/01/17 02:58:38;;;;;;;131.83;57.37;;;;;;;;;;10125622;29;20040;-79
2024/01/17 03:03:40;;;;;;;142.83;62.23;;;;;;;;;;10117232;29;20036;-80
2024/01/17 03:08:41;;;;;;;130.70;59.17;;;;;;;;;;10126874;29;20052;-79
2024/01/17 03:13:42;;;;;;;131.40;52.53;;;;;;;;;;10121256;29;20119;-80
2024/01/17 03:18:43;;;;;;;122.70;52.83;;;;;;;;;;10126461;29;20040;-79
2024/01/17 03:23:44;;;;;;;124.50;52.63;;;;;;;;;;10126870;29;20063;-79
2024/01/17 03:28:45;;;;;;;137.13;57.77;;;;;;;;;;10123022;29;20060;-79
2024/01/17 03:33:46;;;;;;;123.70;54.53;;;;;;;;;;10122713;29;20495;-79
2024/01/17 03:38:47;;;;;;;118.67;48.17;;;;;;;;;;10123698;29;20039;-79
2024/01/17 03:43:49;;;;;;;92.87;38.90;;;;;;;;;;10118086;29;20036;-80
2024/01/17 03:48:50;;;;;;;110.03;42.93;;;;;;;;;;10121201;29;20049;-80
2024/01/17 03:53:51;;;;;;;253.30;79.50;;;;;;;;;;10124123;29;20032;-82
2024/01/17 03:58:52;;;;;;;93.00;38.53;;;;;;;;;;10111317;29;20045;-81
2024/01/17 04:03:54;;;;;;;77.10;32.93;;;;;;;;;;10123901;29;20945;-81
2024/01/17 04:08:55;;;;;;;104.50;43.07;;;;;;;;;;10124329;29;20056;-80
2024/01/17 04:13:56;;;;;;;99.00;43.13;;;;;;;;;;10122869;29;20036;-80
2024/01/17 04:18:57;;;;;;;94.37;40.63;;;;;;;;;;10095137;29;20492;-79
2024/01/17 04:23:58;;;;;;;95.27;41.63;;;;;;;;;;10119849;29;20038;-80
2024/01/17 04:28:59;;;;;;;101.63;42.13;;;;;;;;;;10122537;29;20060;-82
2024/01/17 04:34:03;;;;;;;101.63;40.60;;;;;;;;;;10123492;29;20602;-80
2024/01/17 04:39:04;;;;;;;103.53;42.50;;;;;;;;;;10107144;29;20123;-81
2024/01/17 04:44:05;;;;;;;99.80;39.57;;;;;;;;;;10122952;29;20032;-81
2024/01/17 04:49:07;;;;;;;96.10;41.37;;;;;;;;;;10122016;29;20139;-81
2024/01/17 04:54:08;;;;;;;92.63;36.50;;;;;;;;;;10123254;29;20036;-80
2024/01/17 04:59:09;;;;;;;93.83;38.20;;;;;;;;;;10122435;29;20084;-79
2024/01/17 05:04:11;;;;;;;89.03;34.63;;;;;;;;;;10122022;29;20083;-81
2024/01/17 05:09:18;;;;;;;92.80;34.03;;;;;;;;;;10122780;29;20055;-82
2024/01/17 05:14:19;;;;;;;80.03;31.70;;;;;;;;;;10109765;29;20071;-80
2024/01/17 05:19:20;;;;;;;146.50;51.43;;;;;;;;;;10116328;29;20040;-81
2024/01/17 05:24:21;;;;;;;263.97;89.33;;;;;;;;;;10114502;29;20084;-80
2024/01/17 05:29:22;;;;;;;266.00;91.37;;;;;;;;;;10120780;29;20068;-81
2024/01/17 05:34:23;;;;;;;222.07;72.93;;;;;;;;;;10117598;29;20040;-80
2024/01/17 05:39:24;;;;;;;191.10;67.93;;;;;;;;;;10121314;29;20388;-81
2024/01/17 05:44:25;;;;;;;121.57;46.17;;;;;;;;;;10121874;29;20041;-80
2024/01/17 05:49:26;;;;;;;98.33;43.10;;;;;;;;;;10121748;29;20503;-80
2024/01/17 05:54:27;;;;;;;103.90;40.20;;;;;;;;;;10121211;29;20043;-81
2024/01/17 05:59:28;;;;;;;87.90;37.97;;;;;;;;;;10125705;29;20031;-81
2024/01/17 06:04:30;;;;;;;87.60;36.17;;;;;;;;;;10128509;29;20127;-79
2024/01/17 06:09:31;;;;;;;90.47;37.70;;;;;;;;;;10128144;29;20036;-79
2024/01/17 06:14:32;;;;;;;111.50;43.87;;;;;;;;;;10129229;29;20139;-80
2024/01/17 06:19:33;;;;;;;207.23;80.70;;;;;;;;;;10109913;29;20052;-80
2024/01/17 06:24:34;;;;;;;148.17;59.57;;;;;;;;;;10128332;29;20041;-80
2024/01/17 06:29:35;;;;;;;153.30;57.87;;;;;;;;;;10122446;29;20934;-80
2024/01/17 06:34:37;;;;;;;129.17;56.10;;;;;;;;;;10110591;29;20059;-80
2024/01/17 06:39:38;;;;;;;138.10;49.93;;;;;;;;;;10122953;29;20119;-80
2024/01/17 06:44:39;;;;;;;136.00;51.00;;;;;;;;;;10127676;29;20080;-81
2024/01/17 06:49:41;;;;;;;136.77;52.07;;;;;;;;;;10126994;29;20045;-79
2024/01/17 06:54:42;;;;;;;132.17;50.83;;;;;;;;;;10127981;29;20025;-81
2024/01/17 06:59:43;;;;;;;114.30;44.73;;;;;;;;;;10127177;29;20044;-80
2024/01/17 07:04:44;;;;;;;106.63;41.73;;;;;;;;;;10126052;29;20083;-80
2024/01/17 07:09:45;;;;;;;93.77;35.17;;;;;;;;;;10126266;29;20033;-80
2024/01/17 07:14:48;;;;;;;99.00;41.17;;;;;;;;;;10119150;29;20032;-81
2024/01/17 07:19:49;;;;;;;105.13;39.60;;;;;;;;;;10127054;29;20087;-79
2024/01/17 07:24:56;;;;;;;96.57;38.57;;;;;;;;;;10123454;29;20123;-79
2024/01/17 07:29:58;;;;;;;83.03;31.47;;;;;;;;;;10136986;23;20067;-81
2024/01/17 07:35:06;;;;;;;76.23;31.13;;;;;;;;;;10106674;29;20370;-79
2024/01/17 07:45:11;;;;;;;61.93;27.57;;;;;;;;;;10099628;29;20052;-81
2024/01/17 07:50:12;;;;;;;76.77;29.17;;;;;;;;;;10093444;29;20041;-80
2024/01/17 07:55:15;;;;;;;90.87;35.53;;;;;;;;;;10087843;29;20044;-79
2024/01/17 08:00:18;;;;;;;112.73;43.33;;;;;;;;;;10096732;29;20547;-79
2024/01/17 08:05:19;;;;;;;159.83;67.33;;;;;;;;;;10099836;29;20037;-79
2024/01/17 08:10:21;;;;;;;194.23;76.83;;;;;;;;;;10114289;29;20412;-79
2024/01/17 08:15:22;;;;;;;199.90;82.80;;;;;;;;;;10099544;29;20208;-79
2024/01/17 08:20:23;;;;;;;179.33;76.23;;;;;;;;;;10123169;29;20088;-79
2024/01/17 08:25:25;;;;;;;157.70;65.30;;;;;;;;;;10094570;29;20477;-79
2024/01/17 08:30:26;;;;;;;172.70;72.20;;;;;;;;;;10085602;29;20120;-79
2024/01/17 08:35:27;;;;;;;157.80;67.67;;;;;;;;;;10085757;29;20037;-79
2024/01/17 08:40:28;;;;;;;169.23;70.43;;;;;;;;;;10116978;29;20040;-80
2024/01/17 08:45:29;;;;;;;137.97;59.17;;;;;;;;;;10109483;29;20049;-79
2024/01/17 08:50:32;;;;;;;118.13;48.23;;;;;;;;;;10087614;29;20036;-79
2024/01/17 08:55:33;;;;;;;137.07;57.33;;;;;;;;;;10087787;29;20056;-81
2024/01/17 09:00:34;;;;;;;101.43;42.83;;;;;;;;;;10102651;29;20060;-80
2024/01/17 09:05:35;;;;;;;100.93;45.63;;;;;;;;;;10106478;29;20041;-79
2024/01/17 09:10:36;;;;;;;138.53;58.87;;;;;;;;;;10084783;29;20593;-79
2024/01/17 09:15:37;;;;;;;129.70;52.67;;;;;;;;;;10089717;29;20028;-80
2024/01/17 09:20:38;;;;;;;101.23;45.10;;;;;;;;;;10118047;29;20552;-82
2024/01/17 09:25:46;;;;;;;86.63;42.63;;;;;;;;;;10093526;29;20080;-80
2024/01/17 09:30:47;;;;;;;105.73;45.17;;;;;;;;;;10148066;29;20478;-81
2024/01/17 09:35:56;;;;;;;84.20;35.00;;;;;;;;;;10138005;29;20057;-80
2024/01/17 09:41:04;;;;;;;93.37;42.37;;;;;;;;;;10138736;29;20083;-79
2024/01/17 09:46:18;;;;;;;136.47;56.40;;;;;;;;;;10147458;29;20151;-79
2024/01/17 09:51:21;;;;;;;70.40;30.93;;;;;;;;;;10138749;29;20096;-79
2024/01/17 09:56:24;;;;;;;105.80;40.80;;;;;;;;;;10151692;29;20032;-79
2024/01/17 10:01:27;;;;;;;88.27;40.63;;;;;;;;;;10139152;29;20047;-80
2024/01/17 10:06:28;;;;;;;72.60;31.53;;;;;;;;;;10151375;29;20043;-79
2024/01/17 10:11:29;;;;;;;163.07;73.00;;;;;;;;;;10133670;29;20500;-79
2024/01/17 10:16:31;;;;;;;74.27;32.13;;;;;;;;;;10144365;29;20044;-79
2024/01/17 10:21:33;;;;;;;54.70;23.23;;;;;;;;;;10128620;29;20068;-81
2024/01/17 10:26:34;;;;;;;83.43;33.00;;;;;;;;;;10144285;29;20417;-79
2024/01/17 10:31:38;;;;;;;64.50;29.57;;;;;;;;;;10142971;29;20127;-81
2024/01/17 10:36:41;;;;;;;58.63;29.73;;;;;;;;;;10139536;29;20063;-79
2024/01/17 10:41:54;;;;;;;49.37;22.90;;;;;;;;;;10145314;29;20051;-80
2024/01/17 10:46:55;;;;;;;58.20;25.80;;;;;;;;;;10135746;29;20060;-81
2024/01/17 10:52:08;;;;;;;34.53;17.47;;;;;;;;;;10146346;29;20495;-80
2024/01/17 10:57:10;;;;;;;30.97;14.93;;;;;;;;;;10132966;29;20036;-81
2024/01/17 11:02:16;;;;;;;25.00;13.27;;;;;;;;;;10142791;29;20032;-82
2024/01/17 11:07:17;;;;;;;27.45;13.18;;;;;;;;;;10141646;29;20036;-85
2024/01/17 11:12:20;;;;;;;32.73;14.07;;;;;;;;;;10153733;29;20024;-79
2024/01/17 11:17:21;;;;;;;23.83;12.23;;;;;;;;;;10153379;29;20110;-79
2024/01/17 11:22:22;;;;;;;30.50;13.60;;;;;;;;;;10159708;29;20116;-81
2024/01/17 11:27:26;;;;;;;24.03;10.57;;;;;;;;;;10135459;29;20040;-80
2024/01/17 11:32:47;;;;;;;34.10;13.93;;;;;;;;;;10165289;29;20139;-79
2024/01/17 11:37:48;;;;;;;48.53;17.27;;;;;;;;;;10139125;29;20083;-81
2024/01/17 11:42:50;;;;;;;235.60;81.07;;;;;;;;;;10152516;29;20059;-80
2024/01/17 11:47:56;;;;;;;102.27;39.67;;;;;;;;;;10148680;29;20037;-79
2024/01/17 11:52:57;;;;;;;45.08;17.80;;;;;;;;;;10155949;29;20071;-80
2024/01/17 11:58:06;;;;;;;48.07;18.73;;;;;;;;;;10144401;29;20024;-81
2024/01/17 12:03:07;;;;;;;43.27;15.20;;;;;;;;;;10146521;29;20127;-80
2024/01/17 12:08:08;;;;;;;52.60;19.00;;;;;;;;;;10139390;29;20488;-81
2024/01/17 12:13:09;;;;;;;101.43;43.80;;;;;;;;;;10150945;29;20042;-79
2024/01/17 12:18:10;;;;;;;70.37;31.30;;;;;;;;;;10146697;29;20039;-80
2024/01/17 12:23:11;;;;;;;63.70;27.93;;;;;;;;;;10163895;29;20511;-79
2024/01/17 12:28:19;;;;;;;67.97;29.30;;;;;;;;;;10149204;29;20050;-81
2024/01/17 12:33:20;;;;;;;121.53;47.97;;;;;;;;;;10149345;29;20098;-84
2024/01/17 12:38:22;;;;;;;103.43;46.17;;;;;;;;;;10139761;29;20038;-80
2024/01/17 12:43:23;;;;;;;114.67;50.17;;;;;;;;;;10149012;29;20063;-80
2024/01/17 12:48:26;;;;;;;120.93;47.90;;;;;;;;;;10150947;29;20071;-86
2024/01/17 12:53:28;;;;;;;107.43;43.17;;;;;;;;;;10142172;29;20393;-81
2024/01/17 12:58:31;;;;;;;68.27;25.77;;;;;;;;;;10122652;29;20048;-79
2024/01/17 13:03:32;;;;;;;66.97;23.83;;;;;;;;;;10145162;29;20035;-81
2024/01/17 13:08:34;;;;;;;56.23;22.40;;;;;;;;;;10131433;29;20048;-82
2024/01/17 13:13:35;;;;;;;55.43;21.60;;;;;;;;;;10135652;29;20028;-80
2024/01/17 13:18:37;;;;;;;61.43;25.20;;;;;;;;;;10122313;29;20116;-85
2024/01/17 13:23:39;;;;;;;66.70;26.77;;;;;;;;;;10126827;29;20039;-80
2024/01/17 13:28:40;;;;;;;75.23;29.83;;;;;;;;;;10118316;24;20373;-82
2024/01/17 13:33:41;;;;;;;64.20;26.43;;;;;;;;;;10083323;29;20516;-79
2024/01/17 13:38:43;;;;;;;54.10;22.90;;;;;;;;;;10117958;29;20694;-81
2024/01/17 13:43:45;;;;;;;65.23;24.30;;;;;;;;;;10121449;29;20025;-85
2024/01/17 13:48:46;;;;;;;71.00;31.20;;;;;;;;;;10121002;29;20036;-84
2024/01/17 13:53:53;;;;;;;77.87;34.10;;;;;;;;;;10116610;29;20029;-80
2024/01/17 13:58:54;;;;;;;127.37;53.97;;;;;;;;;;10109984;29;20043;-86
2024/01/17 14:03:55;;;;;;;80.73;35.37;;;;;;;;;;10121242;29;20043;-80
2024/01/17 14:08:56;;;;;;;104.87;47.90;;;;;;;;;;10120605;29;20044;-82
2024/01/17 14:13:57;;;;;;;127.73;56.10;;;;;;;;;;10120627;29;20571;-84
2024/01/17 14:18:58;;;;;;;51.40;22.57;;;;;;;;;;10122893;29;20038;-80
2024/01/17 14:24:01;;;;;;;90.77;33.73;;;;;;;;;;10122336;29;20047;-81
2024/01/17 14:29:02;;;;;;;75.27;28.77;;;;;;;;;;10125524;29;20794;-80
2024/01/17 14:34:03;;;;;;;79.00;34.87;;;;;;;;;;10128264;29;20076;-81
2024/01/17 14:39:07;;;;;;;64.97;29.90;;;;;;;;;;10131710;29;20084;-83
2024/01/17 14:44:10;;;;;;;77.63;33.83;;;;;;;;;;10118272;29;20029;-80
2024/01/17 14:49:12;;;;;;;63.73;28.83;;;;;;;;;;10127297;29;20073;-82
2024/01/17 14:54:15;;;;;;;71.60;32.33;;;;;;;;;;10124872;29;20485;-81
2024/01/17 14:59:23;;;;;;;75.90;31.97;;;;;;;;;;10104678;29;20032;-82
2024/01/17 15:04:24;;;;;;;85.17;34.10;;;;;;;;;;10121777;29;20180;-81
2024/01/17 15:09:25;;;;;;;79.40;35.13;;;;;;;;;;10101504;29;20442;-84
2024/01/17 15:14:26;;;;;;;67.43;30.90;;;;;;;;;;10124198;29;20040;-81
2024/01/17 15:19:27;;;;;;;130.90;57.27;;;;;;;;;;10126923;29;20036;-86
2024/01/17 15:24:28;;;;;;;62.70;29.37;;;;;;;;;;10127134;29;20075;-80
2024/01/17 15:29:30;;;;;;;184.33;101.40;;;;;;;;;;10112359;29;20056;-79
2024/01/17 15:34:37;;;;;;;75.33;35.87;;;;;;;;;;10123930;29;20052;-79
2024/01/17 15:39:38;;;;;;;62.57;28.57;;;;;;;;;;10117640;29;20037;-79
2024/01/17 15:44:39;;;;;;;59.73;27.87;;;;;;;;;;10121694;29;20404;-82
2024/01/17 15:49:41;;;;;;;56.03;28.33;;;;;;;;;;10126442;29;20152;-79
2024/01/17 15:54:42;;;;;;;58.10;27.70;;;;;;;;;;10127754;29;20088;-82
2024/01/17 15:59:43;;;;;;;64.83;29.73;;;;;;;;;;10129549;29;20057;-79
2024/01/17 16:04:44;;;;;;;53.30;27.10;;;;;;;;;;10124342;29;20035;-81
2024/01/17 16:09:48;;;;;;;59.57;27.03;;;;;;;;;;10121747;29;20687;-81
2024/01/17 16:14:52;;;;;;;57.23;26.33;;;;;;;;;;10123958;29;20655;-85
2024/01/17 16:19:53;;;;;;;51.70;24.63;;;;;;;;;;10123062;29;20043;-80
2024/01/17 16:24:54;;;;;;;59.70;25.67;;;;;;;;;;10123763;29;20044;-80
2024/01/17 16:29:55;;;;;;;63.63;27.13;;;;;;;;;;10114650;29;20159;-81
2024/01/17 16:34:56;;;;;;;83.80;36.93;;;;;;;;;;10123715;29;20024;-85
2024/01/17 16:39:57;;;;;;;67.00;31.27;;;;;;;;;;10121499;29;20398;-86
2024/01/17 16:44:58;;;;;;;123.03;55.47;;;;;;;;;;10118999;29;20036;-82
2024/01/17 16:50:00;;;;;;;125.97;55.93;;;;;;;;;;10117277;29;20039;-82
2024/01/17 16:55:02;;;;;;;267.23;111.90;;;;;;;;;;10111085;24;20076;-87
2024/01/17 17:00:06;;;;;;;147.67;67.43;;;;;;;;;;10109597;29;20048;-80
2024/01/17 17:05:10;;;;;;;190.20;77.07;;;;;;;;;;10106151;29;20048;-83
2024/01/17 17:10:11;;;;;;;299.70;128.13;;;;;;;;;;10113370;29;20029;-84
2024/01/17 17:15:12;;;;;;;108.43;51.50;;;;;;;;;;10118195;29;20041;-80
2024/01/17 17:20:14;;;;;;;79.83;38.53;;;;;;;;;;10117922;23;20064;-81
2024/01/17 17:25:15;;;;;;;82.77;37.83;;;;;;;;;;10125592;29;20104;-87
2024/01/17 17:30:16;;;;;;;89.23;41.73;;;;;;;;;;10118461;29;20127;-79
2024/01/17 17:35:18;;;;;;;93.40;42.37;;;;;;;;;;10120335;29;20041;-86
2024/01/17 17:40:19;;;;;;;139.23;59.37;;;;;;;;;;10083994;29;20552;-82
2024/01/17 17:45:20;;;;;;;127.70;53.50;;;;;;;;;;10064745;29;20045;-81
2024/01/17 17:50:22;;;;;;;105.93;43.20;;;;;;;;;;10079388;29;20045;-80
2024/01/17 17:55:24;;;;;;;83.63;38.73;;;;;;;;;;10080544;29;20033;-82
2024/01/17 18:00:25;;;;;;;92.43;40.70;;;;;;;;;;10074834;29;20033;-83
2024/01/17 18:05:26;;;;;;;112.23;47.43;;;;;;;;;;10073148;29;20690;-80
2024/01/17 18:10:27;;;;;;;174.33;72.20;;;;;;;;;;10080390;29;20045;-80
2024/01/17 18:15:28;;;;;;;156.30;64.70;;;;;;;;;;10058442;29;20511;-83
2024/01/17 18:20:30;;;;;;;144.77;62.83;;;;;;;;;;10075230;29;20061;-84
2024/01/17 18:25:31;;;;;;;129.03;58.90;;;;;;;;;;10082996;29;20076;-82
2024/01/17 18:30:32;;;;;;;107.43;48.87;;;;;;;;;;10069515;29;20426;-80
2024/01/17 18:35:33;;;;;;;98.77;49.00;;;;;;;;;;10077730;29;20041;-81
2024/01/17 18:40:35;;;;;;;92.07;46.30;;;;;;;;;;10074223;29;20060;-80
2024/01/17 18:45:36;;;;;;;98.47;47.80;;;;;;;;;;10077556;29;20062;-82
2024/01/17 18:50:38;;;;;;;90.07;44.43;;;;;;;;;;10067932;29;20105;-82
2024/01/17 18:55:40;;;;;;;102.17;45.90;;;;;;;;;;10063785;29;20533;-80
2024/01/17 19:00:41;;;;;;;98.57;48.90;;;;;;;;;;10080145;29;20044;-80
2024/01/17 19:05:42;;;;;;;88.43;44.23;;;;;;;;;;10071946;29;20123;-83
2024/01/17 19:10:43;;;;;;;92.30;47.03;;;;;;;;;;10076785;29;20033;-80
2024/01/17 19:15:46;;;;;;;101.20;51.50;;;;;;;;;;10079682;29;20025;-81
2024/01/17 19:20:48;;;;;;;104.37;50.90;;;;;;;;;;10099668;29;20079;-83
2024/01/17 19:25:49;;;;;;;102.00;52.30;;;;;;;;;;10084974;29;20043;-81
2024/01/17 19:30:51;;;;;;;106.40;52.17;;;;;;;;;;10073315;29;20025;-80
2024/01/17 19:35:52;;;;;;;103.97;53.30;;;;;;;;;;10079051;29;20021;-80
2024/01/17 19:40:54;;;;;;;109.00;53.00;;;;;;;;;;10095484;29;20093;-82
2024/01/17 19:45:55;;;;;;;112.37;56.30;;;;;;;;;;10082157;29;20048;-81
2024/01/17 19:50:56;;;;;;;110.00;54.00;;;;;;;;;;10068581;29;20025;-79
2024/01/17 19:55:57;;;;;;;148.10;71.23;;;;;;;;;;10078044;29;20056;-84
2024/01/17 20:00:58;;;;;;;126.57;65.10;;;;;;;;;;10081935;29;20033;-80
2024/01/17 20:06:00;;;;;;;130.23;76.43;;;;;;;;;;10079958;29;20051;-79
2024/01/17 20:11:04;;;;;;;131.33;67.20;;;;;;;;;;10080126;29;20044;-80
2024/01/17 20:16:05;;;;;;;111.03;57.60;;;;;;;;;;10072015;29;20486;-80
2024/01/17 20:21:06;;;;;;;140.63;61.27;;;;;;;;;;10077408;29;20746;-80
2024/01/17 20:26:07;;;;;;;111.60;54.27;;;;;;;;;;10072575;29;20041;-79
2024/01/17 20:31:08;;;;;;;124.53;57.40;;;;;;;;;;10084429;29;20029;-81
2024/01/17 20:36:13;;;;;;;122.60;58.40;;;;;;;;;;10073132;29;20060;-82
2024/01/17 20:41:17;;;;;;;128.77;58.80;;;;;;;;;;10085591;29;20145;-79
2024/01/17 20:46:18;;;;;;;120.77;54.53;;;;;;;;;;10079679;29;20049;-80
2024/01/17 20:51:23;;;;;;;117.20;53.43;;;;;;;;;;10081605;29;20111;-82
2024/01/17 20:56:30;;;;;;;113.80;53.10;;;;;;;;;;10073045;29;20118;-80
2024/01/17 21:01:37;;;;;;;93.47;42.33;;;;;;;;;;10076225;29;20490;-79
2024/01/17 21:06:38;;;;;;;84.13;37.33;;;;;;;;;;10077572;29;20151;-79
2024/01/17 21:11:39;;;;;;;78.97;39.50;;;;;;;;;;10081791;29;20385;-81
2024/01/17 21:16:43;;;;;;;72.53;36.40;;;;;;;;;;10063173;29;20037;-80
2024/01/17 21:21:44;;;;;;;80.17;36.67;;;;;;;;;;10078829;29;20093;-79
2024/01/17 21:26:45;;;;;;;82.43;39.23;;;;;;;;;;10077887;29;20069;-80
2024/01/17 21:31:46;;;;;;;83.90;39.73;;;;;;;;;;10076283;29;20041;-79
2024/01/17 21:36:53;;;;;;;83.73;43.07;;;;;;;;;;10072917;29;20242;-80
2024/01/17 21:41:54;;;;;;;87.47;44.53;;;;;;;;;;10079343;29;20113;-80
2024/01/17 21:47:02;;;;;;;87.17;45.23;;;;;;;;;;10076283;29;20045;-83
2024/01/17 21:52:04;;;;;;;91.97;46.10;;;;;;;;;;10061416;29;20041;-80
2024/01/17 21:57:05;;;;;;;98.27;49.43;;;;;;;;;;10070653;29;20041;-80
2024/01/17 22:02:06;;;;;;;95.23;46.50;;;;;;;;;;10068852;29;20041;-80
2024/01/17 22:07:07;;;;;;;93.97;45.73;;;;;;;;;;10071293;29;20534;-80
2024/01/17 22:12:08;;;;;;;89.83;43.73;;;;;;;;;;10076388;29;20045;-80
2024/01/17 22:17:09;;;;;;;89.10;43.90;;;;;;;;;;10107182;23;20417;-80
2024/01/17 22:22:10;;;;;;;98.80;45.67;;;;;;;;;;10106317;29;20040;-82
2024/01/17 22:27:11;;;;;;;126.83;66.27;;;;;;;;;;10095276;29;20424;-83
2024/01/17 22:32:12;;;;;;;182.50;77.93;;;;;;;;;;10102013;29;20024;-85
2024/01/17 22:37:15;;;;;;;104.90;50.23;;;;;;;;;;10103831;29;20047;-79
2024/01/17 22:42:16;;;;;;;120.20;52.90;;;;;;;;;;10098959;29;20135;-84
2024/01/17 22:47:17;;;;;;;105.10;51.17;;;;;;;;;;10096147;29;20768;-81
2024/01/17 22:52:18;;;;;;;97.67;47.73;;;;;;;;;;10112604;29;20037;-80
2024/01/17 22:57:19;;;;;;;98.83;48.13;;;;;;;;;;10099992;29;20044;-80
2024/01/17 23:02:21;;;;;;;94.00;47.00;;;;;;;;;;10104195;29;20033;-82
2024/01/17 23:07:22;;;;;;;99.73;51.93;;;;;;;;;;10100932;29;20513;-85
2024/01/17 23:12:22;;;;;;;100.27;48.97;;;;;;;;;;10097253;29;20049;-80
2024/01/17 23:17:24;;;;;;;93.97;45.80;;;;;;;;;;10111404;29;20069;-80
2024/01/17 23:22:25;;;;;;;87.53;43.50;;;;;;;;;;10090877;29;20120;-80
2024/01/17 23:27:26;;;;;;;94.53;45.93;;;;;;;;;;10104711;29;20448;-85
2024/01/17 23:32:27;;;;;;;88.60;42.10;;;;;;;;;;10093955;29;20036;-80
2024/01/17 23:37:28;;;;;;;87.23;43.60;;;;;;;;;;10108651;29;20036;-81
2024/01/17 23:42:29;;;;;;;88.97;42.73;;;;;;;;;;10109265;29;20044;-80
2024/01/17 23:47:30;;;;;;;99.67;44.80;;;;;;;;;;10111902;29;20049;-80
2024/01/17 23:52:31;;;;;;;86.90;42.73;;;;;;;;;;10104371;29;20044;-80
2024/01/17 23:57:39;;;;;;;98.13;49.03;;;;;;;;;;10114631;29;20560;-80
